Time;durP1;ratioP1;P1;durP2;ratioP2;P2;SDS_P1;SDS_P2;PMS_P1;PMS_P2;Temp;Humidity;BMP_temperature;BMP_pressure;BME280_temperature;BME280_humidity;BME280_pressure;Samples;Min_cycle;Max_cycle;Signal;HPM_P1;HPM_P2
2023/09/27 00:00:25;;;;;;;11.52;9.30;;;11.60;99.90;;;;;;4952632;29;20059;-81
2023/09/27 00:02:52;;;;;;;12.70;9.48;;;11.60;99.90;;;;;;4951655;29;20439;-81
2023/09/27 00:05:20;;;;;;;10.57;8.63;;;11.50;99.90;;;;;;4951901;29;20042;-81
2023/09/27 00:07:46;;;;;;;10.65;8.82;;;11.50;99.90;;;;;;4952457;29;20035;-81
2023/09/27 00:10:12;;;;;;;14.15;9.45;;;11.50;99.90;;;;;;4952619;29;20374;-81
2023/09/27 00:12:39;;;;;;;9.88;8.32;;;11.50;99.90;;;;;;4952127;29;20130;-81
2023/09/27 00:15:07;;;;;;;11.27;8.82;;;11.50;99.90;;;;;;4950908;28;20023;-81
2023/09/27 00:17:33;;;;;;;11.00;8.98;;;11.40;99.90;;;;;;4951626;29;20332;-80
2023/09/27 00:19:59;;;;;;;11.57;8.38;;;11.40;99.90;;;;;;4951874;29;20031;-81
2023/09/27 00:22:25;;;;;;;12.00;8.13;;;11.40;99.90;;;;;;4952556;29;20041;-81
2023/09/27 00:24:51;;;;;;;12.00;8.43;;;11.40;99.90;;;;;;4950660;28;20054;-81
2023/09/27 00:27:17;;;;;;;9.05;7.60;;;11.30;99.90;;;;;;4950989;29;20031;-81
2023/09/27 00:29:43;;;;;;;9.32;7.63;;;11.30;99.90;;;;;;4951692;29;20086;-81
2023/09/27 00:32:08;;;;;;;9.90;7.15;;;11.30;99.90;;;;;;4950953;29;20035;-81
2023/09/27 00:34:34;;;;;;;8.40;7.50;;;11.30;99.90;;;;;;4950699;28;20027;-81
2023/09/27 00:37:00;;;;;;;10.00;8.30;;;11.20;99.90;;;;;;4951381;29;20115;-81
2023/09/27 00:39:26;;;;;;;8.77;7.60;;;11.20;99.90;;;;;;4948934;29;20130;-81
2023/09/27 00:41:51;;;;;;;8.88;7.43;;;11.20;99.90;;;;;;4950456;29;20110;-81
2023/09/27 00:44:17;;;;;;;10.80;8.13;;;11.10;99.90;;;;;;4949686;29;20026;-81
2023/09/27 00:46:43;;;;;;;9.30;7.43;;;11.10;99.90;;;;;;4950830;29;20110;-81
2023/09/27 00:49:10;;;;;;;9.30;7.47;;;11.10;99.90;;;;;;4951006;29;20035;-81
2023/09/27 00:51:37;;;;;;;10.02;7.88;;;11.10;99.90;;;;;;4949902;29;20430;-80
2023/09/27 00:54:03;;;;;;;8.70;7.80;;;11.10;99.90;;;;;;4950985;29;20046;-80
2023/09/27 00:56:29;;;;;;;10.77;6.78;;;11.10;99.90;;;;;;4950965;29;20055;-80
2023/09/27 00:58:57;;;;;;;9.20;7.95;;;11.10;99.90;;;;;;4950735;29;20063;-80
2023/09/27 01:01:26;;;;;;;10.23;7.70;;;11.10;99.90;;;;;;4950467;29;20023;-81
2023/09/27 01:03:53;;;;;;;9.95;8.32;;;11.10;99.90;;;;;;4951079;29;20031;-80
2023/09/27 01:06:19;;;;;;;9.07;7.90;;;11.10;99.90;;;;;;4951873;28;20564;-81
2023/09/27 01:08:45;;;;;;;10.20;7.53;;;11.00;99.90;;;;;;4951358;28;20981;-81
2023/09/27 01:11:11;;;;;;;9.57;7.70;;;11.00;99.90;;;;;;4951994;29;20051;-80
2023/09/27 01:13:38;;;;;;;9.60;7.88;;;11.00;99.90;;;;;;4951338;29;20035;-80
2023/09/27 01:16:04;;;;;;;8.50;7.43;;;10.90;99.90;;;;;;4948669;28;20046;-80
2023/09/27 01:18:29;;;;;;;10.57;7.85;;;10.90;99.90;;;;;;4950979;29;20095;-80
2023/09/27 01:20:55;;;;;;;12.13;7.40;;;10.90;99.90;;;;;;4950988;29;20114;-81
2023/09/27 01:23:21;;;;;;;9.70;7.93;;;10.90;99.90;;;;;;4951294;29;20028;-80
2023/09/27 01:25:50;;;;;;;9.07;7.72;;;10.90;99.90;;;;;;4949917;28;20027;-80
2023/09/27 01:28:17;;;;;;;10.13;7.57;;;10.90;99.90;;;;;;4950596;29;20050;-80
2023/09/27 01:30:42;;;;;;;9.00;7.63;;;10.90;99.90;;;;;;4949899;29;20031;-81
2023/09/27 01:33:10;;;;;;;10.88;8.20;;;10.80;99.90;;;;;;4950781;29;20039;-80
2023/09/27 01:35:41;;;;;;;10.30;8.70;;;10.80;99.90;;;;;;4950166;29;20069;-80
2023/09/27 01:38:08;;;;;;;9.57;8.40;;;10.80;99.90;;;;;;4950646;29;20027;-80
2023/09/27 01:40:37;;;;;;;12.82;10.23;;;10.80;99.90;;;;;;4953332;29;20031;-80
2023/09/27 01:43:04;;;;;;;10.82;9.05;;;10.80;99.90;;;;;;4949743;29;20502;-80
2023/09/27 01:45:30;;;;;;;14.00;10.05;;;10.80;99.90;;;;;;4949093;29;20102;-80
2023/09/27 01:47:57;;;;;;;10.40;8.55;;;10.70;99.90;;;;;;4950294;29;20098;-80
2023/09/27 01:50:24;;;;;;;11.15;9.45;;;10.80;99.90;;;;;;4949750;29;20059;-80
2023/09/27 01:52:56;;;;;;;12.98;9.13;;;10.70;99.90;;;;;;4949399;29;21009;-80
2023/09/27 01:55:23;;;;;;;10.57;8.93;;;10.70;99.90;;;;;;4948669;28;20030;-80
2023/09/27 01:57:49;;;;;;;10.63;8.82;;;10.70;99.90;;;;;;4948498;29;20033;-80
2023/09/27 02:00:17;;;;;;;11.98;8.50;;;10.70;99.90;;;;;;4948387;29;20031;-80
2023/09/27 02:02:49;;;;;;;11.57;8.70;;;10.70;99.90;;;;;;4948199;29;20056;-81
2023/09/27 02:05:14;;;;;;;9.88;8.45;;;10.70;99.90;;;;;;4946933;28;20031;-80
2023/09/27 02:07:41;;;;;;;11.25;7.93;;;10.70;99.90;;;;;;4948875;29;20023;-80
2023/09/27 02:10:07;;;;;;;11.98;8.10;;;10.60;99.90;;;;;;4948826;29;20086;-80
2023/09/27 02:12:34;;;;;;;10.43;8.40;;;10.60;99.90;;;;;;4948665;29;20063;-80
2023/09/27 02:15:00;;;;;;;9.13;8.13;;;10.60;99.90;;;;;;4948434;28;20075;-80
2023/09/27 02:17:26;;;;;;;12.73;8.10;;;10.50;99.90;;;;;;4948153;29;20035;-80
2023/09/27 02:19:51;;;;;;;9.80;7.80;;;10.50;99.90;;;;;;4947719;28;20027;-80
2023/09/27 02:22:18;;;;;;;9.52;7.20;;;10.50;99.90;;;;;;4947706;29;20020;-80
2023/09/27 02:24:44;;;;;;;10.35;6.72;;;10.40;99.90;;;;;;4947609;29;20134;-80
2023/09/27 02:27:10;;;;;;;9.32;7.22;;;10.40;99.90;;;;;;4948277;29;20746;-80
2023/09/27 02:29:42;;;;;;;8.88;7.07;;;10.40;99.90;;;;;;4947187;29;20039;-80
2023/09/27 02:32:08;;;;;;;12.20;7.80;;;10.40;99.90;;;;;;4948335;29;20084;-80
2023/09/27 02:34:35;;;;;;;9.75;7.07;;;10.40;99.90;;;;;;4948003;29;20055;-81
2023/09/27 02:37:00;;;;;;;9.38;6.93;;;10.30;99.90;;;;;;4947712;29;20094;-80
2023/09/27 02:39:26;;;;;;;9.52;7.65;;;10.30;99.90;;;;;;4945521;29;20173;-80
2023/09/27 02:41:52;;;;;;;9.32;7.78;;;10.30;99.90;;;;;;4948562;29;20039;-80
2023/09/27 02:44:18;;;;;;;9.18;7.65;;;10.30;99.90;;;;;;4948429;29;20035;-80
2023/09/27 02:46:44;;;;;;;10.27;7.88;;;10.30;99.90;;;;;;4948770;29;20059;-80
2023/09/27 02:49:10;;;;;;;10.07;7.57;;;10.30;99.90;;;;;;4948665;29;21368;-80
2023/09/27 02:51:36;;;;;;;8.52;7.22;;;10.30;99.90;;;;;;4948216;29;20050;-80
2023/09/27 02:54:01;;;;;;;12.05;8.43;;;10.30;99.90;;;;;;4948146;29;20046;-81
2023/09/27 02:56:27;;;;;;;10.07;7.88;;;10.30;99.90;;;;;;4948661;29;20031;-80
2023/09/27 02:58:53;;;;;;;8.18;7.22;;;10.30;99.90;;;;;;4949191;29;20032;-80
2023/09/27 03:01:18;;;;;;;8.77;7.18;;;10.30;99.90;;;;;;4947679;29;20081;-81
2023/09/27 03:03:44;;;;;;;8.88;6.57;;;10.30;99.90;;;;;;4947839;29;20118;-80
2023/09/27 03:06:16;;;;;;;7.85;6.75;;;10.20;99.90;;;;;;4947254;28;20035;-80
2023/09/27 03:08:43;;;;;;;7.80;6.40;;;10.20;99.90;;;;;;4948141;29;20035;-80
2023/09/27 03:11:09;;;;;;;6.72;5.78;;;10.20;99.90;;;;;;4948440;29;20094;-80
2023/09/27 03:13:36;;;;;;;8.13;6.15;;;10.10;99.90;;;;;;4948512;29;20285;-80
2023/09/27 03:16:04;;;;;;;7.65;6.85;;;10.10;99.90;;;;;;4947286;29;20035;-80
2023/09/27 03:18:31;;;;;;;7.82;6.75;;;10.10;99.90;;;;;;4949409;29;20178;-80
2023/09/27 03:20:57;;;;;;;7.63;6.75;;;10.10;99.90;;;;;;4948582;29;20040;-81
2023/09/27 03:23:22;;;;;;;7.82;7.03;;;10.10;99.90;;;;;;4949339;29;20038;-81
2023/09/27 03:25:49;;;;;;;8.57;6.63;;;10.10;99.90;;;;;;4948787;29;20031;-81
2023/09/27 03:28:15;;;;;;;7.95;6.75;;;10.10;99.90;;;;;;4948065;29;20103;-81
2023/09/27 03:30:40;;;;;;;10.15;7.22;;;10.10;99.90;;;;;;4944945;28;20039;-81
2023/09/27 03:33:06;;;;;;;8.82;7.40;;;10.10;99.90;;;;;;4944420;29;20038;-81
2023/09/27 03:35:32;;;;;;;9.13;7.47;;;10.10;99.90;;;;;;4943988;28;20023;-81
2023/09/27 03:37:57;;;;;;;10.55;9.45;;;10.10;99.90;;;;;;4945711;29;20038;-81
2023/09/27 03:40:23;;;;;;;16.67;9.60;;;10.10;99.90;;;;;;4945832;28;20030;-81
2023/09/27 03:42:49;;;;;;;14.30;10.18;;;10.10;99.90;;;;;;4948027;29;20032;-81
2023/09/27 03:45:15;;;;;;;14.65;11.25;;;10.10;99.90;;;;;;4947706;29;20031;-81
2023/09/27 03:47:44;;;;;;;16.23;11.60;;;10.10;99.90;;;;;;4948510;29;20040;-81
2023/09/27 03:50:10;;;;;;;16.48;11.45;;;10.20;99.90;;;;;;4948451;29;20155;-81
2023/09/27 03:52:35;;;;;;;18.80;10.70;;;10.20;99.90;;;;;;4947676;29;20036;-81
2023/09/27 03:55:01;;;;;;;13.65;11.80;;;10.20;99.90;;;;;;4947604;28;20114;-81
2023/09/27 03:57:27;;;;;;;19.52;10.98;;;10.20;99.90;;;;;;4948090;29;20115;-81
2023/09/27 03:59:52;;;;;;;14.23;11.90;;;10.20;99.90;;;;;;4947390;29;20459;-81
2023/09/27 04:02:18;;;;;;;27.58;13.13;;;10.20;99.90;;;;;;4947681;29;20109;-81
2023/09/27 04:04:43;;;;;;;18.80;12.88;;;10.20;99.90;;;;;;4946583;28;20062;-81
2023/09/27 04:07:09;;;;;;;17.73;12.48;;;10.30;99.90;;;;;;4941998;29;20031;-81
2023/09/27 04:09:35;;;;;;;16.33;12.75;;;10.30;99.90;;;;;;4947129;29;20414;-81
2023/09/27 04:12:00;;;;;;;13.38;11.43;;;10.30;99.90;;;;;;4948194;29;20035;-82
2023/09/27 04:14:26;;;;;;;12.90;11.10;;;10.20;99.90;;;;;;4947548;29;20097;-81
2023/09/27 04:16:51;;;;;;;15.55;11.35;;;10.30;99.90;;;;;;4948458;29;20101;-81
2023/09/27 04:19:17;;;;;;;12.52;10.25;;;10.30;99.90;;;;;;4945671;29;20509;-81
2023/09/27 04:21:42;;;;;;;12.15;10.05;;;10.30;99.90;;;;;;4946224;29;20031;-80
2023/09/27 04:24:08;;;;;;;12.93;9.55;;;10.30;99.90;;;;;;4947276;29;21037;-81
2023/09/27 04:26:34;;;;;;;11.50;8.88;;;10.20;99.90;;;;;;4946099;28;20027;-83
2023/09/27 04:29:00;;;;;;;10.18;8.30;;;10.20;99.90;;;;;;4947226;29;20031;-83
2023/09/27 04:31:25;;;;;;;10.57;8.73;;;10.20;99.90;;;;;;4946180;29;20075;-83
2023/09/27 04:33:51;;;;;;;12.20;8.48;;;10.20;99.90;;;;;;4945573;29;20070;-83
2023/09/27 04:36:17;;;;;;;11.68;8.15;;;10.10;99.90;;;;;;4944906;28;20114;-83
2023/09/27 04:38:47;;;;;;;12.10;9.00;;;10.10;99.90;;;;;;4946636;29;20035;-83
2023/09/27 04:41:17;;;;;;;9.40;7.93;;;10.10;99.90;;;;;;4947467;29;20091;-83
2023/09/27 04:43:43;;;;;;;13.40;8.15;;;10.10;99.90;;;;;;4947390;28;20107;-83
2023/09/27 04:46:13;;;;;;;8.70;7.77;;;10.20;99.90;;;;;;4949168;28;20038;-83
2023/09/27 04:48:39;;;;;;;10.73;8.27;;;10.20;99.90;;;;;;4949566;29;20443;-85
2023/09/27 04:51:04;;;;;;;10.05;7.95;;;10.20;99.90;;;;;;4949209;29;20023;-84
2023/09/27 04:53:37;;;;;;;10.85;7.53;;;10.20;99.90;;;;;;4944293;29;20039;-85
2023/09/27 04:56:11;;;;;;;10.40;7.90;;;10.30;99.90;;;;;;4946628;29;20118;-85
2023/09/27 04:58:43;;;;;;;15.27;8.18;;;10.30;99.90;;;;;;4948368;29;20035;-84
2023/09/27 05:01:10;;;;;;;11.95;7.18;;;10.30;99.90;;;;;;4947356;29;20106;-85
2023/09/27 05:03:37;;;;;;;8.57;6.68;;;10.30;99.90;;;;;;4949212;29;20130;-84
2023/09/27 05:06:03;;;;;;;10.10;7.18;;;10.30;99.90;;;;;;4946213;28;20114;-83
2023/09/27 05:08:29;;;;;;;12.00;7.22;;;10.30;99.90;;;;;;4948703;29;20058;-85
2023/09/27 05:10:55;;;;;;;11.43;8.52;;;10.30;99.90;;;;;;4946737;29;20090;-84
2023/09/27 05:13:22;;;;;;;9.88;7.82;;;10.30;99.90;;;;;;4948126;29;20050;-86
2023/09/27 05:15:48;;;;;;;11.82;8.00;;;10.30;99.90;;;;;;4948449;28;20027;-85
2023/09/27 05:18:13;;;;;;;9.03;7.40;;;10.30;99.90;;;;;;4948346;29;20033;-84
2023/09/27 05:20:39;;;;;;;8.63;6.93;;;10.30;99.90;;;;;;4945643;29;20047;-86
2023/09/27 05:23:05;;;;;;;17.40;7.45;;;10.30;99.90;;;;;;4948011;29;20042;-84
2023/09/27 05:25:30;;;;;;;10.77;7.50;;;10.30;99.90;;;;;;4947757;28;20031;-84
2023/09/27 05:27:57;;;;;;;8.77;7.67;;;10.30;99.90;;;;;;4948915;29;20230;-85
2023/09/27 05:30:22;;;;;;;8.15;7.35;;;10.30;99.90;;;;;;4948044;29;20509;-84
2023/09/27 05:32:48;;;;;;;9.32;7.15;;;10.20;99.90;;;;;;4948184;29;20059;-84
2023/09/27 05:35:13;;;;;;;8.82;7.28;;;10.30;99.90;;;;;;4943154;28;20027;-86
2023/09/27 05:37:41;;;;;;;9.23;7.82;;;10.20;99.90;;;;;;4945603;29;20477;-85
2023/09/27 05:40:09;;;;;;;10.18;7.38;;;10.30;99.90;;;;;;4945894;29;20050;-85
2023/09/27 05:42:35;;;;;;;9.60;7.60;;;10.30;99.90;;;;;;4944638;29;20114;-84
2023/09/27 05:45:01;;;;;;;10.98;7.22;;;10.30;99.90;;;;;;4943078;28;20514;-83
2023/09/27 05:47:27;;;;;;;7.68;6.88;;;10.30;99.90;;;;;;4945482;29;20031;-84
2023/09/27 05:49:53;;;;;;;11.50;8.18;;;10.30;99.90;;;;;;4943707;29;20077;-84
2023/09/27 05:52:19;;;;;;;12.93;9.40;;;10.30;99.90;;;;;;4942997;29;20494;-85
2023/09/27 05:54:46;;;;;;;10.88;8.98;;;10.40;99.90;;;;;;4944362;28;20030;-84
2023/09/27 05:57:11;;;;;;;10.40;8.20;;;10.40;99.90;;;;;;4944405;29;20042;-85
2023/09/27 05:59:40;;;;;;;8.50;7.50;;;10.50;99.90;;;;;;4941924;29;20035;-85
2023/09/27 06:02:07;;;;;;;8.45;6.68;;;10.50;99.90;;;;;;4943666;29;20066;-86
2023/09/27 06:04:33;;;;;;;9.82;7.72;;;10.60;99.90;;;;;;4935804;29;21359;-86
2023/09/27 06:06:58;;;;;;;10.77;7.43;;;10.60;99.90;;;;;;4938047;29;20035;-84
2023/09/27 06:09:24;;;;;;;14.00;7.95;;;10.70;99.90;;;;;;4939619;29;20066;-85
2023/09/27 06:11:50;;;;;;;8.13;7.32;;;10.70;99.90;;;;;;4939419;29;20063;-84
2023/09/27 06:14:16;;;;;;;10.60;8.68;;;10.80;99.90;;;;;;4937891;29;20173;-85
2023/09/27 06:16:44;;;;;;;10.15;7.72;;;10.90;99.90;;;;;;4937062;29;20031;-84
2023/09/27 06:19:11;;;;;;;12.75;7.28;;;10.90;99.90;;;;;;4936856;29;20147;-84
2023/09/27 06:21:37;;;;;;;6.80;6.10;;;10.90;99.90;;;;;;4937970;29;21444;-84
2023/09/27 06:24:03;;;;;;;9.30;6.13;;;11.00;99.90;;;;;;4936307;29;20035;-85
2023/09/27 06:26:29;;;;;;;8.27;6.50;;;11.00;99.90;;;;;;4920111;29;20066;-85
2023/09/27 06:28:54;;;;;;;10.57;6.43;;;11.10;99.90;;;;;;4937336;28;20023;-85
2023/09/27 06:31:21;;;;;;;10.32;6.82;;;11.10;99.90;;;;;;4935766;29;20134;-84
2023/09/27 06:33:47;;;;;;;13.80;7.50;;;11.20;99.90;;;;;;4936514;29;20142;-85
2023/09/27 06:36:15;;;;;;;9.05;6.53;;;11.30;99.90;;;;;;4938041;28;20035;-85
2023/09/27 06:38:40;;;;;;;8.85;6.63;;;11.40;99.90;;;;;;4936188;29;20042;-90
2023/09/27 06:41:08;;;;;;;10.05;6.93;;;11.50;99.90;;;;;;4935743;29;20023;-83
2023/09/27 06:43:34;;;;;;;9.50;6.57;;;11.60;99.90;;;;;;4935914;29;20039;-85
2023/09/27 06:46:01;;;;;;;8.75;7.05;;;11.70;99.90;;;;;;4933767;28;20045;-86
2023/09/27 06:48:27;;;;;;;8.52;6.32;;;11.80;99.90;;;;;;4934371;29;20039;-86
2023/09/27 06:50:53;;;;;;;7.95;7.15;;;11.90;99.90;;;;;;4934840;29;20529;-86
2023/09/27 06:53:19;;;;;;;6.97;6.10;;;12.00;99.90;;;;;;4936545;29;20043;-86
2023/09/27 06:55:44;;;;;;;7.10;6.40;;;12.10;99.90;;;;;;4934988;29;21032;-85
2023/09/27 06:58:11;;;;;;;7.70;5.88;;;12.20;99.90;;;;;;4932809;29;20061;-86
2023/09/27 07:00:40;;;;;;;8.23;6.03;;;12.30;99.90;;;;;;4949257;29;20030;-89
2023/09/27 07:03:06;;;;;;;7.40;4.90;;;12.40;99.90;;;;;;4942790;29;20032;-87
2023/09/27 07:05:33;;;;;;;7.72;5.72;;;12.60;99.90;;;;;;4939079;28;21398;-86
2023/09/27 07:07:59;;;;;;;8.25;5.18;;;12.70;99.90;;;;;;4938899;29;20038;-81
2023/09/27 07:10:24;;;;;;;8.43;5.32;;;12.80;99.90;;;;;;4941254;29;20027;-84
2023/09/27 07:12:50;;;;;;;6.82;5.25;;;12.90;99.90;;;;;;4943470;28;20094;-84
2023/09/27 07:15:16;;;;;;;6.15;4.78;;;13.00;99.90;;;;;;4940480;28;20027;-85
2023/09/27 07:17:43;;;;;;;7.50;4.93;;;13.10;99.90;;;;;;4939444;29;20690;-85
2023/09/27 07:20:32;;;;;;;6.50;5.43;;;13.20;99.90;;;;;;4941660;29;20707;-84
2023/09/27 07:22:58;;;;;;;7.50;5.35;;;13.40;99.90;;;;;;4940878;29;20063;-84
2023/09/27 07:25:24;;;;;;;8.48;5.43;;;13.50;99.90;;;;;;4940009;28;20150;-85
2023/09/27 07:27:51;;;;;;;7.57;5.10;;;13.60;99.90;;;;;;4941089;29;20031;-84
2023/09/27 07:30:18;;;;;;;6.13;4.78;;;13.70;99.90;;;;;;4940210;29;20403;-84
2023/09/27 07:32:55;;;;;;;7.30;5.10;;;13.80;99.90;;;;;;4944577;29;20035;-84
2023/09/27 07:35:21;;;;;;;6.50;4.97;;;14.00;99.90;;;;;;4949987;29;20486;-85
2023/09/27 07:37:47;;;;;;;8.88;5.10;;;14.20;99.90;;;;;;4939682;29;20049;-84
2023/09/27 07:40:14;;;;;;;10.18;5.35;;;14.20;99.90;;;;;;4937380;28;20039;-84
2023/09/27 07:42:41;;;;;;;6.88;5.43;;;14.30;99.90;;;;;;4939174;29;20549;-86
2023/09/27 07:45:12;;;;;;;9.18;5.25;;;14.50;99.90;;;;;;4937164;29;20031;-86
2023/09/27 07:47:37;;;;;;;6.68;4.80;;;14.60;99.90;;;;;;4936349;29;20046;-85
2023/09/27 07:50:04;;;;;;;6.00;4.50;;;14.70;99.90;;;;;;4939018;29;20024;-85
2023/09/27 07:52:29;;;;;;;12.52;5.43;;;14.80;99.90;;;;;;4938668;29;20071;-84
2023/09/27 07:54:58;;;;;;;6.10;5.30;;;14.90;99.90;;;;;;4935385;28;20054;-84
2023/09/27 07:57:24;;;;;;;9.02;5.07;;;15.00;99.90;;;;;;4937755;29;20036;-86
2023/09/27 07:59:49;;;;;;;9.50;4.88;;;15.00;99.90;;;;;;4937696;29;20082;-84
2023/09/27 08:02:15;;;;;;;9.10;5.07;;;15.20;99.90;;;;;;4937059;29;20035;-85
2023/09/27 08:04:40;;;;;;;8.27;5.03;;;15.30;99.90;;;;;;4934547;28;20126;-86
2023/09/27 08:07:06;;;;;;;9.90;4.95;;;15.40;99.90;;;;;;4937071;29;20058;-86
2023/09/27 08:09:36;;;;;;;6.45;4.15;;;15.50;99.90;;;;;;4936785;29;20707;-86
2023/09/27 08:12:01;;;;;;;8.93;4.75;;;15.60;99.90;;;;;;4936258;29;20035;-86
2023/09/27 08:14:27;;;;;;;9.75;5.53;;;15.80;99.90;;;;;;4934334;28;20054;-86
2023/09/27 08:16:52;;;;;;;6.65;4.97;;;15.90;99.90;;;;;;4936754;28;20150;-84
2023/09/27 08:19:18;;;;;;;7.55;6.10;;;16.10;99.90;;;;;;4939182;28;20030;-87
2023/09/27 08:21:43;;;;;;;8.27;5.13;;;16.20;99.90;;;;;;4938806;29;20035;-85
2023/09/27 08:24:09;;;;;;;8.68;6.30;;;16.40;99.90;;;;;;4937962;29;20086;-85
2023/09/27 08:26:35;;;;;;;6.82;4.95;;;16.50;99.90;;;;;;4938131;29;20099;-87
2023/09/27 08:29:01;;;;;;;6.80;5.57;;;16.70;99.90;;;;;;4940486;29;20110;-85
2023/09/27 08:31:26;;;;;;;9.27;6.65;;;16.90;99.90;;;;;;4937514;29;20502;-88
2023/09/27 08:33:52;;;;;;;9.57;7.38;;;17.10;99.90;;;;;;4937706;29;20047;-85
2023/09/27 08:36:18;;;;;;;8.13;6.93;;;17.20;99.90;;;;;;4938319;29;20334;-85
2023/09/27 08:38:43;;;;;;;8.50;6.60;;;17.40;99.90;;;;;;4938680;29;20027;-85
2023/09/27 08:41:12;;;;;;;8.43;6.47;;;17.60;99.90;;;;;;4921253;29;20047;-87
2023/09/27 08:43:38;;;;;;;9.70;6.53;;;17.80;99.90;;;;;;4939236;29;20498;-85
2023/09/27 08:46:04;;;;;;;10.65;7.47;;;18.00;99.90;;;;;;4953423;28;20057;-85
2023/09/27 08:48:30;;;;;;;10.68;7.15;;;18.20;99.90;;;;;;4938724;29;20076;-86
2023/09/27 08:50:59;;;;;;;11.23;6.80;;;18.40;99.90;;;;;;4938367;29;20926;-86
2023/09/27 08:53:25;;;;;;;9.38;6.25;;;18.50;99.90;;;;;;4937641;29;20055;-87
2023/09/27 08:55:51;;;;;;;11.15;6.78;;;18.60;99.90;;;;;;4935795;28;20057;-86
2023/09/27 08:58:18;;;;;;;7.60;6.28;;;18.80;99.90;;;;;;4936026;29;20113;-86
2023/09/27 09:00:44;;;;;;;7.82;6.10;;;19.00;99.90;;;;;;4936202;29;20051;-86
2023/09/27 09:03:10;;;;;;;9.93;6.05;;;19.20;99.90;;;;;;4936147;29;20035;-86
2023/09/27 09:05:37;;;;;;;7.25;5.75;;;19.30;99.90;;;;;;4934628;28;20426;-86
2023/09/27 09:08:05;;;;;;;8.77;6.05;;;19.50;99.90;;;;;;4937015;29;20514;-88
2023/09/27 09:10:30;;;;;;;9.10;5.68;;;19.60;99.90;;;;;;4937362;29;21182;-88
2023/09/27 09:12:59;;;;;;;8.80;5.80;;;19.80;99.90;;;;;;4937069;29;20082;-89
2023/09/27 09:15:40;;;;;;;8.63;5.38;;;19.90;99.90;;;;;;4935369;28;20169;-89
2023/09/27 09:18:14;;;;;;;7.65;6.35;;;20.00;99.90;;;;;;4936052;29;20086;-86
2023/09/27 09:20:51;;;;;;;7.90;6.38;;;20.00;99.90;;;;;;4935926;29;20065;-87
2023/09/27 09:23:28;;;;;;;10.52;8.07;;;20.00;99.90;;;;;;4936379;29;20086;-86
2023/09/27 09:25:56;;;;;;;7.32;6.55;;;19.90;99.90;;;;;;4934498;29;20023;-85
2023/09/27 09:28:23;;;;;;;7.25;6.45;;;19.90;99.90;;;;;;4935787;28;20042;-86
2023/09/27 09:30:49;;;;;;;9.30;7.40;;;19.90;99.90;;;;;;4935252;28;20024;-87
2023/09/27 09:33:28;;;;;;;10.10;8.13;;;20.10;99.90;;;;;;4937195;29;20529;-85
2023/09/27 09:35:54;;;;;;;10.57;7.50;;;20.20;99.90;;;;;;4921007;29;20200;-87
2023/09/27 09:38:38;;;;;;;8.60;6.63;;;20.50;99.90;;;;;;4936788;28;20035;-86
2023/09/27 09:41:03;;;;;;;11.48;7.93;;;20.70;99.90;;;;;;4934995;29;20050;-85
2023/09/27 09:43:30;;;;;;;11.13;8.30;;;20.90;99.90;;;;;;4937695;29;20506;-87
2023/09/27 09:45:55;;;;;;;13.77;8.25;;;21.20;99.90;;;;;;4934225;28;20115;-86
2023/09/27 09:48:23;;;;;;;11.10;7.85;;;21.40;99.90;;;;;;4938223;29;20518;-85
2023/09/27 09:50:49;;;;;;;14.60;8.10;;;21.60;99.90;;;;;;4936529;29;20502;-86
2023/09/27 09:53:16;;;;;;;13.23;8.48;;;21.70;99.90;;;;;;4935951;29;20039;-86
2023/09/27 09:55:46;;;;;;;20.08;8.07;;;21.60;99.90;;;;;;4933683;28;20073;-87
2023/09/27 09:58:37;;;;;;;17.90;8.40;;;21.60;99.90;;;;;;4936273;29;20095;-86
2023/09/27 10:01:04;;;;;;;10.73;7.32;;;21.70;99.90;;;;;;4939598;29;20031;-86
2023/09/27 10:03:33;;;;;;;12.32;7.80;;;21.90;99.90;;;;;;4941094;29;20522;-86
2023/09/27 10:06:04;;;;;;;8.88;6.95;;;22.10;99.90;;;;;;4941380;28;20085;-86
2023/09/27 10:08:38;;;;;;;13.52;8.07;;;22.30;99.90;;;;;;4942857;29;20027;-80
2023/09/27 10:11:04;;;;;;;11.00;7.45;;;22.40;99.90;;;;;;4948295;29;20097;-79
2023/09/27 10:13:35;;;;;;;12.02;7.50;;;22.50;99.90;;;;;;4946228;29;20232;-79
2023/09/27 10:16:03;;;;;;;10.70;6.72;;;22.50;99.90;;;;;;4946094;29;20042;-79
2023/09/27 10:18:30;;;;;;;10.65;7.30;;;22.70;99.90;;;;;;4946376;29;20039;-79
2023/09/27 10:21:02;;;;;;;10.05;6.22;;;23.00;99.90;;;;;;4943853;29;20615;-79
2023/09/27 10:23:46;;;;;;;9.32;6.20;;;22.90;99.90;;;;;;4950766;29;20035;-78
2023/09/27 10:26:27;;;;;;;8.38;6.40;;;22.90;99.90;;;;;;4955181;28;20058;-79
2023/09/27 10:29:13;;;;;;;11.55;7.50;;;22.90;99.90;;;;;;4948408;29;20031;-79
2023/09/27 10:32:14;;;;;;;8.35;6.88;;;23.00;99.90;;;;;;4945004;29;20037;-79
2023/09/27 10:34:41;;;;;;;11.63;7.80;;;23.10;99.90;;;;;;4924726;28;20047;-79
2023/09/27 10:37:07;;;;;;;11.88;7.75;;;23.00;99.90;;;;;;4944228;29;20030;-79
2023/09/27 10:39:33;;;;;;;8.57;7.22;;;23.00;99.90;;;;;;4944567;29;20031;-79
2023/09/27 10:41:58;;;;;;;11.55;7.15;;;23.10;99.90;;;;;;4944220;28;20035;-79
2023/09/27 10:44:29;;;;;;;9.15;6.70;;;23.10;99.90;;;;;;4942443;28;20035;-80
2023/09/27 10:46:55;;;;;;;9.15;7.28;;;23.00;99.90;;;;;;4943397;29;20530;-78
2023/09/27 10:49:22;;;;;;;10.20;6.95;;;23.20;99.90;;;;;;4943881;29;20035;-80
2023/09/27 10:51:48;;;;;;;10.68;6.45;;;23.30;99.90;;;;;;4942036;29;20528;-83
2023/09/27 10:54:14;;;;;;;8.38;6.10;;;23.30;99.90;;;;;;4940318;29;20066;-78
2023/09/27 10:56:48;;;;;;;12.63;7.25;;;23.30;99.90;;;;;;4938246;28;20114;-77
2023/09/27 10:59:21;;;;;;;;;;;23.20;99.90;;;;;;4941447;28;20031;-79
2023/09/27 11:01:47;;;;;;;10.73;7.65;;;23.30;99.90;;;;;;4941787;28;19957;-78
2023/09/27 11:04:13;;;;;;;9.75;6.85;;;23.30;99.90;;;;;;4938052;28;20038;-77
2023/09/27 11:06:38;;;;;;;11.05;5.80;;;23.20;99.90;;;;;;4938862;29;20056;-78
2023/09/27 11:09:12;;;;;;;11.52;7.65;;;23.30;99.90;;;;;;4940838;29;20086;-78
2023/09/27 11:11:43;;;;;;;9.30;7.38;;;23.50;99.90;;;;;;4940261;29;20023;-77
2023/09/27 11:14:09;;;;;;;10.68;8.15;;;23.70;99.90;;;;;;4940850;29;20424;-77
2023/09/27 11:16:35;;;;;;;12.73;8.75;;;24.00;99.90;;;;;;4941212;29;20405;-78
2023/09/27 11:19:02;;;;;;;11.68;7.25;;;24.10;99.90;;;;;;4939764;29;20039;-78
2023/09/27 11:21:28;;;;;;;10.95;7.40;;;24.10;99.90;;;;;;4937739;29;20027;-78
2023/09/27 11:24:03;;;;;;;11.15;7.78;;;24.20;99.90;;;;;;4940719;29;20459;-77
2023/09/27 11:26:31;;;;;;;12.85;8.88;;;24.30;99.90;;;;;;4940776;28;20027;-78
2023/09/27 11:29:02;;;;;;;10.38;8.60;;;24.30;99.90;;;;;;4938834;29;20035;-86
2023/09/27 11:31:32;;;;;;;10.80;8.43;;;24.30;99.90;;;;;;4937478;29;20066;-76
2023/09/27 11:34:13;;;;;;;15.43;8.68;;;24.40;99.90;;;;;;4940807;29;20047;-77
2023/09/27 11:36:55;;;;;;;12.80;9.07;;;24.60;99.90;;;;;;4941194;29;20035;-76
2023/09/27 11:39:26;;;;;;;15.25;8.80;;;24.60;99.90;;;;;;4939014;29;20051;-76
2023/09/27 11:41:56;;;;;;;12.40;8.73;;;24.60;99.90;;;;;;4939419;29;20572;-77
2023/09/27 11:44:26;;;;;;;11.02;8.45;;;24.50;99.90;;;;;;4939384;28;20074;-76
2023/09/27 11:47:06;;;;;;;12.20;8.45;;;24.50;99.90;;;;;;4939168;29;20582;-75
2023/09/27 11:49:33;;;;;;;12.52;8.50;;;24.50;99.90;;;;;;4942200;28;20086;-76
2023/09/27 11:52:01;;;;;;;16.00;8.05;;;24.60;99.90;;;;;;4943389;28;20024;-77
2023/09/27 11:54:27;;;;;;;13.77;8.70;;;24.70;99.90;;;;;;4943437;28;20035;-76
2023/09/27 11:56:53;;;;;;;17.05;9.88;;;24.80;99.90;;;;;;4944732;28;20042;-77
2023/09/27 11:59:19;;;;;;;10.75;7.97;;;24.80;99.90;;;;;;4945228;29;20175;-77
2023/09/27 12:01:44;;;;;;;11.50;6.03;;;24.50;99.90;;;;;;4944249;28;20498;-77
2023/09/27 12:04:10;;;;;;;12.38;6.25;;;24.80;99.90;;;;;;4944038;28;20023;-76
2023/09/27 12:06:37;;;;;;;8.48;5.78;;;24.90;99.90;;;;;;4947539;28;20035;-76
2023/09/27 12:09:05;;;;;;;11.70;6.45;;;25.00;99.90;;;;;;4940031;28;20528;-76
2023/09/27 12:11:31;;;;;;;8.68;5.97;;;25.20;99.90;;;;;;4937141;28;20035;-76
2023/09/27 12:13:56;;;;;;;9.00;6.00;;;25.20;99.90;;;;;;4937951;28;20557;-76
2023/09/27 12:16:22;;;;;;;10.90;5.28;;;25.20;99.90;;;;;;4938094;28;20059;-76
2023/09/27 12:18:48;;;;;;;7.82;5.20;;;25.30;99.90;;;;;;4936819;28;20080;-77
2023/09/27 12:21:14;;;;;;;10.45;6.07;;;25.40;99.90;;;;;;4936947;28;20038;-78
2023/09/27 12:23:40;;;;;;;9.73;6.50;;;25.40;99.90;;;;;;4936610;29;20027;-76
2023/09/27 12:26:06;;;;;;;8.32;6.40;;;25.40;99.90;;;;;;4936633;28;20078;-77
2023/09/27 12:28:36;;;;;;;7.05;5.28;;;25.20;99.90;;;;;;4938230;29;20093;-78
2023/09/27 12:31:05;;;;;;;9.48;6.50;;;25.10;99.90;;;;;;4938028;28;20118;-77
2023/09/27 12:33:30;;;;;;;10.23;5.18;;;25.10;99.90;;;;;;4936702;28;20050;-76
2023/09/27 12:35:56;;;;;;;9.02;6.47;;;24.90;99.90;;;;;;4935707;28;20043;-75
2023/09/27 12:38:22;;;;;;;8.30;5.70;;;24.90;99.90;;;;;;4938465;28;20126;-77
2023/09/27 12:40:48;;;;;;;8.85;5.85;;;24.70;99.90;;;;;;4936276;28;20039;-76